Time;durP1;ratioP1;P1;durP2;ratioP2;P2;SDS_P1;SDS_P2;PMS_P1;PMS_P2;Temp;Humidity;BMP_temperature;BMP_pressure;BME280_temperature;BME280_humidity;BME280_pressure;Samples;Min_cycle;Max_cycle;Signal;HPM_P1;HPM_P2
2023/07/29 00:00:57;;;;;;;3.05;2.58;;;;;;;;;;5050468;28;20646;-51
2023/07/29 00:03:23;;;;;;;2.92;2.60;;;;;;;;;;5039733;28;20190;-51
2023/07/29 00:05:49;;;;;;;2.28;2.08;;;;;;;;;;5052740;28;20546;-50
2023/07/29 00:08:15;;;;;;;4.38;2.28;;;;;;;;;;5048302;28;20182;-50
2023/07/29 00:10:41;;;;;;;2.85;2.40;;;;;;;;;;5045679;28;20183;-51
2023/07/29 00:13:08;;;;;;;3.38;2.55;;;;;;;;;;5051959;28;20187;-50
2023/07/29 00:15:34;;;;;;;1.98;1.88;;;;;;;;;;5054401;28;20183;-51
2023/07/29 00:18:00;;;;;;;2.65;1.98;;;;;;;;;;5055964;28;20229;-50
2023/07/29 00:20:26;;;;;;;2.50;2.30;;;;;;;;;;5053208;28;20481;-50
2023/07/29 00:22:54;;;;;;;1.80;1.70;;;;;;;;;;5063577;28;20184;-50
2023/07/29 00:25:21;;;;;;;1.67;1.58;;;;;;;;;;5067700;28;20194;-50
2023/07/29 00:27:47;;;;;;;2.60;1.65;;;;;;;;;;5047832;28;20551;-50
2023/07/29 00:30:13;;;;;;;3.22;1.83;;;;;;;;;;5046138;28;20198;-50
2023/07/29 00:32:39;;;;;;;2.10;1.90;;;;;;;;;;5055392;28;20312;-50
2023/07/29 00:35:05;;;;;;;2.17;1.75;;;;;;;;;;5052118;28;20229;-49
2023/07/29 00:37:31;;;;;;;4.95;1.88;;;;;;;;;;5056060;28;20183;-50
2023/07/29 00:39:58;;;;;;;1.77;1.67;;;;;;;;;;5047764;28;20180;-50
2023/07/29 00:42:24;;;;;;;2.00;1.63;;;;;;;;;;5049293;28;20255;-50
2023/07/29 00:44:50;;;;;;;1.58;1.42;;;;;;;;;;5053188;28;20270;-50
2023/07/29 00:47:16;;;;;;;1.90;1.80;;;;;;;;;;5054777;28;20574;-50
2023/07/29 00:49:44;;;;;;;1.92;1.63;;;;;;;;;;5051182;28;20193;-50
2023/07/29 00:52:12;;;;;;;1.80;1.52;;;;;;;;;;5058757;28;20419;-50
2023/07/29 00:54:38;;;;;;;1.15;1.05;;;;;;;;;;5054624;28;20443;-50
2023/07/29 00:57:04;;;;;;;1.00;1.00;;;;;;;;;;5051391;28;20285;-50
2023/07/29 00:59:31;;;;;;;1.20;1.10;;;;;;;;;;5054367;28;20202;-50
2023/07/29 01:01:58;;;;;;;1.08;1.00;;;;;;;;;;5049235;28;20289;-50
2023/07/29 01:04:24;;;;;;;0.77;0.77;;;;;;;;;;5049854;28;20187;-50
2023/07/29 01:06:58;;;;;;;0.85;0.85;;;;;;;;;;5052539;28;20194;-51
2023/07/29 01:09:34;;;;;;;0.82;0.80;;;;;;;;;;5055721;28;20221;-50
2023/07/29 01:12:14;;;;;;;1.02;1.00;;;;;;;;;;5050846;28;20513;-50
2023/07/29 01:14:47;;;;;;;0.98;0.98;;;;;;;;;;5054820;28;20202;-49
2023/07/29 01:17:22;;;;;;;1.25;1.15;;;;;;;;;;5054635;28;20191;-51
2023/07/29 01:19:50;;;;;;;2.03;1.00;;;;;;;;;;5054209;28;20662;-51
2023/07/29 01:22:17;;;;;;;1.58;1.00;;;;;;;;;;5054148;28;20182;-50
2023/07/29 01:24:43;;;;;;;0.70;0.70;;;;;;;;;;5053207;28;20223;-50
2023/07/29 01:27:09;;;;;;;0.93;0.90;;;;;;;;;;5055320;28;20258;-50
2023/07/29 01:29:35;;;;;;;0.70;0.70;;;;;;;;;;5051082;28;20179;-50
2023/07/29 01:32:04;;;;;;;2.40;0.90;;;;;;;;;;5054568;28;20210;-50
2023/07/29 01:34:32;;;;;;;0.77;0.77;;;;;;;;;;5042619;28;20982;-51
2023/07/29 01:37:02;;;;;;;1.75;0.65;;;;;;;;;;5044041;28;20621;-50
2023/07/29 01:39:29;;;;;;;0.75;0.70;;;;;;;;;;5047382;28;20175;-50
2023/07/29 01:41:55;;;;;;;1.00;0.95;;;;;;;;;;5042586;28;20533;-50
2023/07/29 01:44:21;;;;;;;2.17;0.80;;;;;;;;;;5051678;28;20182;-50
2023/07/29 01:46:47;;;;;;;0.80;0.60;;;;;;;;;;5052357;28;20278;-51
2023/07/29 01:49:13;;;;;;;0.50;0.50;;;;;;;;;;5054760;28;20255;-50
2023/07/29 01:51:39;;;;;;;1.15;0.90;;;;;;;;;;5053897;28;20189;-50
2023/07/29 01:54:05;;;;;;;0.60;0.60;;;;;;;;;;5054402;28;20197;-50
2023/07/29 01:56:31;;;;;;;0.73;0.60;;;;;;;;;;5050048;28;20265;-50
2023/07/29 01:58:57;;;;;;;0.98;0.70;;;;;;;;;;5054662;28;20182;-50
2023/07/29 02:01:23;;;;;;;1.00;0.73;;;;;;;;;;5050381;28;20202;-50
2023/07/29 02:03:54;;;;;;;0.75;0.75;;;;;;;;;;5051722;28;20225;-50
2023/07/29 02:06:20;;;;;;;0.80;0.80;;;;;;;;;;5045326;28;20266;-51
2023/07/29 02:08:46;;;;;;;0.77;0.77;;;;;;;;;;5054433;28;20262;-50
2023/07/29 02:11:12;;;;;;;2.17;0.80;;;;;;;;;;5048874;28;21430;-50
2023/07/29 02:13:38;;;;;;;1.30;0.77;;;;;;;;;;5040818;28;20195;-50
2023/07/29 02:16:04;;;;;;;2.05;0.77;;;;;;;;;;5052438;28;20187;-50
2023/07/29 02:18:30;;;;;;;0.73;0.73;;;;;;;;;;5050157;28;20254;-49
2023/07/29 02:20:56;;;;;;;1.00;0.90;;;;;;;;;;5045190;28;20289;-49
2023/07/29 02:23:22;;;;;;;2.95;0.68;;;;;;;;;;5051012;28;20262;-50
2023/07/29 02:25:48;;;;;;;1.13;1.10;;;;;;;;;;5054320;28;20198;-50
2023/07/29 02:28:14;;;;;;;0.63;0.63;;;;;;;;;;5053368;28;20183;-49
2023/07/29 02:30:44;;;;;;;0.98;0.90;;;;;;;;;;5053412;28;20446;-49
2023/07/29 02:33:10;;;;;;;1.85;0.88;;;;;;;;;;5053818;28;20183;-50
2023/07/29 02:35:36;;;;;;;1.15;0.90;;;;;;;;;;5053948;28;20270;-50
2023/07/29 02:38:02;;;;;;;1.80;0.80;;;;;;;;;;5045577;28;20195;-50
2023/07/29 02:40:29;;;;;;;0.95;0.90;;;;;;;;;;5057800;28;20199;-50
2023/07/29 02:42:55;;;;;;;0.80;0.80;;;;;;;;;;5047145;28;20168;-50
2023/07/29 02:45:21;;;;;;;2.33;0.90;;;;;;;;;;5046367;28;20182;-51
2023/07/29 02:47:46;;;;;;;0.93;0.80;;;;;;;;;;5051256;28;20209;-49
2023/07/29 02:50:12;;;;;;;0.63;0.63;;;;;;;;;;5056993;28;20191;-50
2023/07/29 02:52:39;;;;;;;2.30;0.77;;;;;;;;;;5055403;28;20543;-50
2023/07/29 02:55:05;;;;;;;0.80;0.80;;;;;;;;;;5054350;28;20217;-50
2023/07/29 02:57:31;;;;;;;0.80;0.70;;;;;;;;;;5051119;28;20570;-50
2023/07/29 02:59:57;;;;;;;0.68;0.68;;;;;;;;;;5057916;28;20225;-50
2023/07/29 03:02:23;;;;;;;3.75;0.70;;;;;;;;;;5053387;28;20259;-50
2023/07/29 03:04:49;;;;;;;0.80;0.80;;;;;;;;;;5057526;28;20259;-50
2023/07/29 03:07:15;;;;;;;1.00;1.00;;;;;;;;;;5057889;28;20175;-50
2023/07/29 03:09:41;;;;;;;1.58;0.90;;;;;;;;;;5052594;28;20194;-50
2023/07/29 03:12:07;;;;;;;1.63;0.90;;;;;;;;;;5055282;28;20193;-50
2023/07/29 03:14:34;;;;;;;1.25;0.90;;;;;;;;;;5056243;28;20209;-50
2023/07/29 03:17:04;;;;;;;1.85;0.57;;;;;;;;;;5057371;28;20293;-50
2023/07/29 03:19:30;;;;;;;1.13;1.02;;;;;;;;;;5057814;28;20542;-50
2023/07/29 03:21:56;;;;;;;0.90;0.90;;;;;;;;;;5057514;28;20218;-50
2023/07/29 03:24:22;;;;;;;0.85;0.85;;;;;;;;;;5065770;28;20206;-50
2023/07/29 03:26:48;;;;;;;1.20;1.10;;;;;;;;;;5050430;28;20610;-50
2023/07/29 03:29:14;;;;;;;1.42;1.17;;;;;;;;;;5050142;28;20191;-50
2023/07/29 03:31:39;;;;;;;1.00;1.00;;;;;;;;;;5056843;28;20183;-50
2023/07/29 03:34:05;;;;;;;2.08;1.00;;;;;;;;;;5056231;28;20179;-50
2023/07/29 03:36:31;;;;;;;1.10;0.90;;;;;;;;;;5057431;28;20194;-49
2023/07/29 03:38:58;;;;;;;1.10;0.80;;;;;;;;;;5057495;28;20187;-50
2023/07/29 03:41:24;;;;;;;1.88;1.10;;;;;;;;;;5054976;28;20632;-50
2023/07/29 03:43:50;;;;;;;1.65;1.15;;;;;;;;;;5050868;28;20191;-50
2023/07/29 03:46:19;;;;;;;1.27;1.13;;;;;;;;;;5054749;28;20203;-49
2023/07/29 03:48:45;;;;;;;1.30;1.20;;;;;;;;;;5048319;28;20183;-50
2023/07/29 03:51:11;;;;;;;1.20;1.10;;;;;;;;;;5048854;28;20270;-50
2023/07/29 03:53:37;;;;;;;1.85;1.15;;;;;;;;;;5051915;28;20183;-50
2023/07/29 03:56:03;;;;;;;1.38;1.27;;;;;;;;;;5052860;28;20829;-50
2023/07/29 03:58:29;;;;;;;1.13;1.02;;;;;;;;;;5049405;28;20201;-50
2023/07/29 04:00:55;;;;;;;1.40;1.30;;;;;;;;;;5038755;28;20740;-50
2023/07/29 04:03:21;;;;;;;1.20;1.10;;;;;;;;;;5054887;28;20187;-50
2023/07/29 04:05:47;;;;;;;1.25;1.20;;;;;;;;;;5056543;28;20187;-50
2023/07/29 04:08:12;;;;;;;1.40;1.30;;;;;;;;;;5049280;28;20205;-50
2023/07/29 04:10:38;;;;;;;2.65;1.38;;;;;;;;;;5056375;28;20201;-51
2023/07/29 04:13:05;;;;;;;1.40;1.30;;;;;;;;;;5050587;28;20187;-51
2023/07/29 04:15:31;;;;;;;2.65;1.27;;;;;;;;;;5052621;28;20509;-50
2023/07/29 04:17:57;;;;;;;1.25;1.15;;;;;;;;;;5051919;28;20473;-50
2023/07/29 04:20:23;;;;;;;1.20;1.10;;;;;;;;;;5053437;28;20203;-50
2023/07/29 04:22:49;;;;;;;2.45;1.30;;;;;;;;;;5059649;28;20175;-49
2023/07/29 04:25:15;;;;;;;1.35;1.25;;;;;;;;;;5054607;28;20203;-49
2023/07/29 04:27:40;;;;;;;1.40;1.30;;;;;;;;;;5053157;28;20187;-50
2023/07/29 04:30:07;;;;;;;1.00;1.00;;;;;;;;;;5055610;28;20185;-49
2023/07/29 04:32:33;;;;;;;1.38;1.27;;;;;;;;;;5042119;28;20210;-50
2023/07/29 04:34:59;;;;;;;4.53;1.50;;;;;;;;;;5055710;28;20245;-50
2023/07/29 04:37:25;;;;;;;2.47;1.10;;;;;;;;;;5043373;28;20184;-50
2023/07/29 04:39:50;;;;;;;1.38;1.27;;;;;;;;;;5049725;28;20186;-50
2023/07/29 04:42:17;;;;;;;1.65;1.30;;;;;;;;;;5052108;28;20206;-50
2023/07/29 04:44:43;;;;;;;1.40;1.30;;;;;;;;;;5055807;28;20505;-51
2023/07/29 04:47:09;;;;;;;1.50;1.40;;;;;;;;;;5049865;28;20290;-50
2023/07/29 04:49:35;;;;;;;1.63;1.52;;;;;;;;;;5049256;28;20254;-50
2023/07/29 04:52:01;;;;;;;1.30;1.20;;;;;;;;;;5057691;28;20197;-50
2023/07/29 04:54:26;;;;;;;1.25;1.17;;;;;;;;;;5045756;28;20222;-50
2023/07/29 04:56:52;;;;;;;2.20;1.40;;;;;;;;;;5044772;28;20534;-50
2023/07/29 04:59:18;;;;;;;1.42;1.30;;;;;;;;;;5046517;28;20563;-51
2023/07/29 05:01:44;;;;;;;5.35;1.30;;;;;;;;;;5046256;28;20206;-50
2023/07/29 05:04:10;;;;;;;1.42;1.33;;;;;;;;;;5052782;28;20187;-50
2023/07/29 05:06:36;;;;;;;3.22;1.20;;;;;;;;;;5055459;28;20176;-50
2023/07/29 05:09:18;;;;;;;3.25;1.27;;;;;;;;;;5052957;28;20181;-49
2023/07/29 05:11:45;;;;;;;2.55;1.30;;;;;;;;;;5054364;28;20183;-50
2023/07/29 05:14:11;;;;;;;1.40;1.30;;;;;;;;;;5054837;28;20187;-50
2023/07/29 05:16:37;;;;;;;1.77;1.30;;;;;;;;;;5055237;28;20266;-50
2023/07/29 05:19:03;;;;;;;2.33;1.10;;;;;;;;;;5055092;28;20352;-50
2023/07/29 05:21:29;;;;;;;1.27;1.17;;;;;;;;;;5054938;28;20211;-50
2023/07/29 05:23:55;;;;;;;1.75;1.00;;;;;;;;;;5071596;28;20232;-51
2023/07/29 05:26:21;;;;;;;1.83;1.20;;;;;;;;;;5053136;28;20210;-50
2023/07/29 05:28:47;;;;;;;1.20;1.10;;;;;;;;;;5043994;28;20179;-49
2023/07/29 05:31:13;;;;;;;1.17;1.13;;;;;;;;;;5054595;28;20184;-50
2023/07/29 05:33:39;;;;;;;1.08;1.08;;;;;;;;;;5055342;28;20449;-49
2023/07/29 05:36:05;;;;;;;2.90;1.10;;;;;;;;;;5051749;28;20179;-50
2023/07/29 05:38:31;;;;;;;1.42;0.85;;;;;;;;;;5054936;28;20227;-49
2023/07/29 05:40:57;;;;;;;2.22;1.10;;;;;;;;;;5053772;28;20223;-49
2023/07/29 05:43:24;;;;;;;1.45;0.98;;;;;;;;;;5051226;28;20593;-50
2023/07/29 05:45:50;;;;;;;1.00;1.00;;;;;;;;;;5054275;28;20175;-49
2023/07/29 05:48:17;;;;;;;0.98;0.98;;;;;;;;;;5052194;28;20195;-50
2023/07/29 05:50:42;;;;;;;1.98;1.10;;;;;;;;;;5042159;28;20188;-50
2023/07/29 05:53:08;;;;;;;1.00;0.90;;;;;;;;;;5063420;28;20265;-50
2023/07/29 05:55:34;;;;;;;1.52;1.42;;;;;;;;;;5053776;28;20244;-50
2023/07/29 05:58:00;;;;;;;1.20;1.10;;;;;;;;;;5042350;28;20187;-50
2023/07/29 06:00:26;;;;;;;1.17;1.08;;;;;;;;;;5045890;28;20199;-51
2023/07/29 06:02:52;;;;;;;1.42;1.30;;;;;;;;;;5052215;28;20218;-49
2023/07/29 06:05:18;;;;;;;1.30;1.20;;;;;;;;;;5047047;28;20267;-50
2023/07/29 06:07:44;;;;;;;1.73;0.93;;;;;;;;;;5049659;28;20414;-50
2023/07/29 06:10:14;;;;;;;2.85;1.05;;;;;;;;;;5053736;28;20252;-50
2023/07/29 06:12:40;;;;;;;2.45;1.00;;;;;;;;;;5039627;28;20189;-50
2023/07/29 06:15:06;;;;;;;1.05;0.95;;;;;;;;;;5047228;28;20175;-50
2023/07/29 06:17:32;;;;;;;1.10;1.00;;;;;;;;;;5053763;28;20213;-50
2023/07/29 06:19:58;;;;;;;0.90;0.90;;;;;;;;;;5049501;28;20183;-51
2023/07/29 06:22:24;;;;;;;1.27;1.10;;;;;;;;;;5060968;28;20214;-50
2023/07/29 06:24:49;;;;;;;1.20;1.10;;;;;;;;;;5060141;28;20187;-50
2023/07/29 06:27:15;;;;;;;1.83;0.90;;;;;;;;;;5049868;28;20265;-50
2023/07/29 06:29:41;;;;;;;1.10;1.10;;;;;;;;;;5046726;28;20681;-50
2023/07/29 06:32:07;;;;;;;1.30;1.08;;;;;;;;;;5053152;28;20546;-50
2023/07/29 06:34:33;;;;;;;1.15;1.13;;;;;;;;;;5053491;28;20183;-50
2023/07/29 06:36:59;;;;;;;1.05;0.88;;;;;;;;;;5048815;28;20329;-51
2023/07/29 06:39:25;;;;;;;2.45;1.27;;;;;;;;;;5042383;28;20176;-50
2023/07/29 06:41:51;;;;;;;1.15;1.05;;;;;;;;;;5047908;28;20814;-49
2023/07/29 06:44:17;;;;;;;1.98;1.17;;;;;;;;;;5049068;28;20191;-50
2023/07/29 06:46:43;;;;;;;2.40;1.10;;;;;;;;;;5042060;28;20177;-50
2023/07/29 06:49:09;;;;;;;1.10;1.10;;;;;;;;;;5050877;28;20179;-50
2023/07/29 06:51:35;;;;;;;1.60;1.35;;;;;;;;;;5050211;28;20330;-50
2023/07/29 06:54:02;;;;;;;1.30;1.10;;;;;;;;;;5059504;28;20419;-50
2023/07/29 06:56:28;;;;;;;1.30;1.20;;;;;;;;;;5053266;28;20268;-50
2023/07/29 06:58:54;;;;;;;1.05;1.05;;;;;;;;;;5050868;28;20222;-51
2023/07/29 07:01:19;;;;;;;1.10;1.10;;;;;;;;;;5050735;28;20214;-50
2023/07/29 07:03:45;;;;;;;1.67;1.40;;;;;;;;;;5053849;28;20198;-50
2023/07/29 07:06:11;;;;;;;1.23;1.10;;;;;;;;;;5054989;28;20456;-50
2023/07/29 07:08:37;;;;;;;1.50;1.13;;;;;;;;;;5052558;28;20585;-50
2023/07/29 07:11:03;;;;;;;1.10;1.10;;;;;;;;;;5053615;28;20266;-50
2023/07/29 07:13:29;;;;;;;1.70;1.10;;;;;;;;;;5056258;28;20180;-50
2023/07/29 07:15:55;;;;;;;1.50;1.08;;;;;;;;;;5052391;28;20184;-50
2023/07/29 07:18:24;;;;;;;2.08;1.40;;;;;;;;;;5050124;28;20183;-50
2023/07/29 07:20:51;;;;;;;1.20;1.10;;;;;;;;;;5045463;28;20210;-50
2023/07/29 07:23:17;;;;;;;1.40;1.30;;;;;;;;;;5070685;28;20215;-50
2023/07/29 07:25:43;;;;;;;1.13;1.10;;;;;;;;;;5077368;28;20278;-50
2023/07/29 07:28:09;;;;;;;1.17;1.08;;;;;;;;;;5057393;28;20484;-50
2023/07/29 07:30:35;;;;;;;1.30;1.20;;;;;;;;;;5056634;28;20705;-50
2023/07/29 07:33:02;;;;;;;1.95;1.33;;;;;;;;;;5057484;28;20179;-50
2023/07/29 07:35:28;;;;;;;0.98;0.98;;;;;;;;;;5050394;28;20271;-50
2023/07/29 07:37:53;;;;;;;1.63;1.20;;;;;;;;;;5047003;28;20265;-51
2023/07/29 07:40:19;;;;;;;1.00;1.00;;;;;;;;;;5048507;28;20261;-50
2023/07/29 07:42:45;;;;;;;1.00;1.00;;;;;;;;;;5050186;28;20582;-50
2023/07/29 07:45:11;;;;;;;1.30;1.20;;;;;;;;;;5049591;28;20273;-50
2023/07/29 07:47:37;;;;;;;1.50;1.00;;;;;;;;;;5051453;28;20297;-49
2023/07/29 07:50:03;;;;;;;1.42;1.20;;;;;;;;;;5054846;28;20226;-50
2023/07/29 07:52:29;;;;;;;1.42;1.10;;;;;;;;;;5061337;28;20190;-49
2023/07/29 07:54:55;;;;;;;1.80;1.17;;;;;;;;;;5060263;28;20194;-50
2023/07/29 07:57:22;;;;;;;1.73;1.10;;;;;;;;;;5050171;28;20175;-50
2023/07/29 07:59:48;;;;;;;1.90;1.02;;;;;;;;;;5056425;28;20194;-50
2023/07/29 08:02:14;;;;;;;1.13;1.13;;;;;;;;;;5055304;28;20203;-50
2023/07/29 08:04:40;;;;;;;0.98;0.98;;;;;;;;;;5054941;28;20179;-50
2023/07/29 08:07:06;;;;;;;1.20;1.00;;;;;;;;;;5056790;28;20454;-50
2023/07/29 08:09:32;;;;;;;1.23;1.13;;;;;;;;;;5052920;28;20191;-50
2023/07/29 08:11:58;;;;;;;0.90;0.90;;;;;;;;;;5056408;28;20179;-50
2023/07/29 08:14:24;;;;;;;1.20;1.10;;;;;;;;;;5055403;28;20187;-50
2023/07/29 08:16:50;;;;;;;0.95;0.95;;;;;;;;;;5055755;28;20424;-51
2023/07/29 08:19:16;;;;;;;1.05;1.05;;;;;;;;;;5050926;28;20540;-51
2023/07/29 08:21:42;;;;;;;2.80;1.00;;;;;;;;;;5052633;28;20208;-50
2023/07/29 08:24:08;;;;;;;0.95;0.85;;;;;;;;;;5076413;28;20504;-50
2023/07/29 08:26:34;;;;;;;0.80;0.80;;;;;;;;;;5052332;28;20179;-50
2023/07/29 08:29:00;;;;;;;1.00;1.00;;;;;;;;;;5056214;28;20207;-50
2023/07/29 08:31:25;;;;;;;1.00;1.00;;;;;;;;;;5053826;28;20205;-51
2023/07/29 08:33:51;;;;;;;2.38;1.20;;;;;;;;;;5055283;28;20236;-50
2023/07/29 08:36:17;;;;;;;1.83;1.08;;;;;;;;;;5055760;28;20240;-50
2023/07/29 08:38:43;;;;;;;1.15;1.05;;;;;;;;;;5052495;28;20566;-50
2023/07/29 08:41:15;;;;;;;0.93;0.93;;;;;;;;;;5050736;28;20653;-50
2023/07/29 08:43:44;;;;;;;1.02;1.00;;;;;;;;;;5054473;28;20193;-50
2023/07/29 08:46:10;;;;;;;1.10;1.00;;;;;;;;;;5053728;28;20190;-51
2023/07/29 08:48:43;;;;;;;1.23;1.13;;;;;;;;;;5052920;28;20180;-50
2023/07/29 08:51:10;;;;;;;1.10;1.00;;;;;;;;;;5051409;28;20180;-50
2023/07/29 08:53:37;;;;;;;1.23;1.10;;;;;;;;;;5053779;28;20614;-50
2023/07/29 08:56:03;;;;;;;1.17;1.10;;;;;;;;;;5051556;28;20183;-49
2023/07/29 08:58:29;;;;;;;1.10;1.00;;;;;;;;;;5052098;28;20179;-51
2023/07/29 09:00:55;;;;;;;0.88;0.88;;;;;;;;;;5055635;28;20233;-50
2023/07/29 09:03:22;;;;;;;0.88;0.88;;;;;;;;;;5044629;28;20310;-50
2023/07/29 09:05:48;;;;;;;1.08;0.98;;;;;;;;;;5047665;28;20179;-49
2023/07/29 09:08:14;;;;;;;0.80;0.80;;;;;;;;;;5054973;28;20175;-50
2023/07/29 09:10:40;;;;;;;2.10;0.98;;;;;;;;;;5042531;28;20187;-50
2023/07/29 09:13:06;;;;;;;2.45;1.10;;;;;;;;;;5075280;28;20516;-49
2023/07/29 09:15:32;;;;;;;0.80;0.80;;;;;;;;;;5075566;28;20175;-49
2023/07/29 09:17:59;;;;;;;0.93;0.90;;;;;;;;;;5073711;28;20178;-50
2023/07/29 09:20:28;;;;;;;3.28;0.82;;;;;;;;;;5055032;28;20179;-49
2023/07/29 09:22:55;;;;;;;0.85;0.85;;;;;;;;;;5065968;28;20182;-50
2023/07/29 09:25:28;;;;;;;2.00;0.73;;;;;;;;;;5057011;28;20229;-49
2023/07/29 09:28:00;;;;;;;0.70;0.70;;;;;;;;;;5052318;28;20629;-49
2023/07/29 09:30:26;;;;;;;1.10;0.98;;;;;;;;;;5051325;28;20794;-49
2023/07/29 09:32:55;;;;;;;0.77;0.77;;;;;;;;;;5050841;28;20201;-49
2023/07/29 09:35:21;;;;;;;2.47;0.60;;;;;;;;;;5053958;28;20518;-50
2023/07/29 09:37:47;;;;;;;1.27;0.73;;;;;;;;;;5051897;28;20185;-50
2023/07/29 09:40:17;;;;;;;1.15;0.93;;;;;;;;;;5051696;28;20246;-49
2023/07/29 09:42:53;;;;;;;0.80;0.80;;;;;;;;;;5051885;28;20182;-49
2023/07/29 09:45:26;;;;;;;0.77;0.75;;;;;;;;;;5048265;28;20514;-50
2023/07/29 09:47:53;;;;;;;0.90;0.90;;;;;;;;;;5045823;28;20192;-49
2023/07/29 09:50:19;;;;;;;1.33;0.60;;;;;;;;;;5049573;28;20180;-49
2023/07/29 09:52:45;;;;;;;1.42;0.65;;;;;;;;;;5054626;28;20608;-49
2023/07/29 09:55:17;;;;;;;0.50;0.50;;;;;;;;;;5054433;28;20617;-50
2023/07/29 09:57:43;;;;;;;0.60;0.60;;;;;;;;;;5046634;28;20198;-50
2023/07/29 10:00:11;;;;;;;0.60;0.60;;;;;;;;;;5045402;28;20214;-50
2023/07/29 10:02:41;;;;;;;1.00;0.70;;;;;;;;;;5043907;28;20607;-49
2023/07/29 10:05:08;;;;;;;0.52;0.40;;;;;;;;;;5062256;28;20170;-50
2023/07/29 10:07:37;;;;;;;0.40;0.40;;;;;;;;;;5057728;28;20528;-49
2023/07/29 10:10:07;;;;;;;0.45;0.45;;;;;;;;;;5074113;28;20679;-50
2023/07/29 10:12:34;;;;;;;1.38;0.60;;;;;;;;;;5069477;28;20535;-48
2023/07/29 10:15:04;;;;;;;0.52;0.50;;;;;;;;;;5050051;28;20458;-49
2023/07/29 10:17:31;;;;;;;1.27;0.60;;;;;;;;;;5052186;28;20201;-50
2023/07/29 10:20:00;;;;;;;0.57;0.50;;;;;;;;;;5048914;28;20183;-49
2023/07/29 10:22:29;;;;;;;0.80;0.60;;;;;;;;;;5058987;28;20215;-50
2023/07/29 10:25:00;;;;;;;0.70;0.70;;;;;;;;;;5053981;28;20197;-49
2023/07/29 10:27:27;;;;;;;0.93;0.80;;;;;;;;;;5046663;28;20179;-50
2023/07/29 10:29:56;;;;;;;1.00;0.65;;;;;;;;;;5049996;28;20183;-50
2023/07/29 10:32:24;;;;;;;1.70;0.60;;;;;;;;;;5048612;28;20183;-50
2023/07/29 10:34:51;;;;;;;5.68;2.97;;;;;;;;;;5063052;28;20244;-49
2023/07/29 10:37:17;;;;;;;82.05;28.67;;;;;;;;;;5053056;28;20193;-50
2023/07/29 10:39:52;;;;;;;75.70;30.08;;;;;;;;;;5053640;28;20466;-50
2023/07/29 10:42:18;;;;;;;27.67;11.63;;;;;;;;;;5050075;28;20210;-50
2023/07/29 10:44:51;;;;;;;15.85;7.90;;;;;;;;;;5045184;28;20191;-50
2023/07/29 10:47:27;;;;;;;7.65;3.92;;;;;;;;;;5050479;28;20507;-50
2023/07/29 10:49:55;;;;;;;3.05;1.80;;;;;;;;;;5051748;28;20183;-50
2023/07/29 10:52:30;;;;;;;3.33;1.58;;;;;;;;;;5053510;28;20175;-50
2023/07/29 10:54:58;;;;;;;1.92;1.10;;;;;;;;;;5053137;28;20193;-50
2023/07/29 10:57:33;;;;;;;3.17;1.58;;;;;;;;;;5054184;28;20262;-50
2023/07/29 10:59:59;;;;;;;1.95;1.05;;;;;;;;;;5049721;28;20187;-50
2023/07/29 11:02:33;;;;;;;4.45;1.60;;;;;;;;;;5051819;28;20215;-48
2023/07/29 11:05:00;;;;;;;3.05;1.50;;;;;;;;;;5054989;28;20278;-42
2023/07/29 11:07:27;;;;;;;14.93;4.05;;;;;;;;;;5058081;28;20171;-42
2023/07/29 11:09:56;;;;;;;47.58;11.07;;;;;;;;;;5055492;28;20229;-42
2023/07/29 11:12:34;;;;;;;92.00;29.50;;;;;;;;;;5053892;28;20216;-42
2023/07/29 11:15:03;;;;;;;150.27;47.35;;;;;;;;;;5054610;28;20191;-42
2023/07/29 11:17:30;;;;;;;138.05;51.70;;;;;;;;;;5057625;28;20190;-42
2023/07/29 11:19:57;;;;;;;130.25;47.25;;;;;;;;;;5056965;28;20201;-42
2023/07/29 11:22:24;;;;;;;115.95;43.00;;;;;;;;;;5056910;28;20214;-42
2023/07/29 11:24:50;;;;;;;103.78;39.80;;;;;;;;;;5056776;28;20197;-42
2023/07/29 11:27:16;;;;;;;84.15;34.00;;;;;;;;;;5057526;28;20519;-43
2023/07/29 11:29:42;;;;;;;74.47;33.63;;;;;;;;;;5057181;28;20179;-43
2023/07/29 11:32:08;;;;;;;78.30;31.23;;;;;;;;;;5049900;28;20191;-41
2023/07/29 11:34:35;;;;;;;69.85;27.73;;;;;;;;;;5069576;28;20217;-45
2023/07/29 11:37:01;;;;;;;72.57;27.35;;;;;;;;;;5070822;28;20191;-44
2023/07/29 11:39:27;;;;;;;61.38;23.30;;;;;;;;;;5047869;28;20290;-43
2023/07/29 11:41:53;;;;;;;60.85;22.30;;;;;;;;;;5050410;28;20246;-46
2023/07/29 11:44:18;;;;;;;48.17;20.52;;;;;;;;;;5052051;28;20187;-47
2023/07/29 11:46:45;;;;;;;46.08;19.77;;;;;;;;;;5051344;28;20243;-46
2023/07/29 11:49:11;;;;;;;50.38;18.85;;;;;;;;;;5044223;28;20175;-46
2023/07/29 11:51:37;;;;;;;40.13;17.42;;;;;;;;;;5055395;28;20229;-49
2023/07/29 11:54:03;;;;;;;39.67;17.02;;;;;;;;;;5059111;28;20274;-46
2023/07/29 11:56:33;;;;;;;42.58;16.58;;;;;;;;;;5048217;28;20597;-46
2023/07/29 11:58:58;;;;;;;40.33;15.70;;;;;;;;;;5046677;28;20184;-47
2023/07/29 12:01:24;;;;;;;39.88;16.45;;;;;;;;;;5049919;28;20211;-47
2023/07/29 12:03:51;;;;;;;31.25;13.43;;;;;;;;;;5051143;28;20225;-47
2023/07/29 12:06:17;;;;;;;29.17;11.98;;;;;;;;;;5046558;28;20175;-47
2023/07/29 12:08:43;;;;;;;24.48;9.60;;;;;;;;;;5051060;28;20191;-47
2023/07/29 12:11:10;;;;;;;26.33;10.95;;;;;;;;;;5053760;28;20191;-47
2023/07/29 12:13:39;;;;;;;19.02;9.00;;;;;;;;;;5054036;28;20242;-47
2023/07/29 12:16:05;;;;;;;19.02;9.05;;;;;;;;;;5052910;28;20196;-47
2023/07/29 12:18:31;;;;;;;17.73;8.65;;;;;;;;;;5054949;28;20183;-47
2023/07/29 12:20:57;;;;;;;17.80;7.55;;;;;;;;;;5056319;28;20203;-47
2023/07/29 12:23:26;;;;;;;23.00;9.35;;;;;;;;;;5070594;28;20178;-47
2023/07/29 12:25:58;;;;;;;18.98;7.80;;;;;;;;;;5049635;28;20198;-47
2023/07/29 12:28:25;;;;;;;15.98;7.22;;;;;;;;;;5043167;28;20187;-47
2023/07/29 12:30:54;;;;;;;20.60;7.32;;;;;;;;;;5051582;28;20218;-47
2023/07/29 12:33:34;;;;;;;11.43;5.28;;;;;;;;;;5055866;28;20209;-47
2023/07/29 12:36:00;;;;;;;13.38;5.70;;;;;;;;;;5053521;28;20187;-47
2023/07/29 12:38:31;;;;;;;10.15;5.28;;;;;;;;;;5056265;28;20217;-46
2023/07/29 12:40:57;;;;;;;11.05;4.95;;;;;;;;;;5053373;28;20248;-46
2023/07/29 12:43:23;;;;;;;10.45;4.88;;;;;;;;;;5053697;28;20191;-47
2023/07/29 12:45:49;;;;;;;7.07;3.80;;;;;;;;;;5039551;28;20187;-47
2023/07/29 12:48:15;;;;;;;7.82;4.25;;;;;;;;;;5050376;28;20215;-47
2023/07/29 12:50:41;;;;;;;8.48;3.88;;;;;;;;;;5053313;28;20191;-47
2023/07/29 12:53:10;;;;;;;8.02;3.45;;;;;;;;;;5068480;28;20182;-47
2023/07/29 12:55:36;;;;;;;5.95;3.40;;;;;;;;;;5059441;28;20198;-47
2023/07/29 12:58:02;;;;;;;7.07;3.40;;;;;;;;;;5054766;28;20222;-47
2023/07/29 13:00:28;;;;;;;7.35;2.88;;;;;;;;;;5051654;28;20237;-47
2023/07/29 13:02:54;;;;;;;6.35;2.92;;;;;;;;;;5054270;28;20466;-46
2023/07/29 13:05:20;;;;;;;5.50;2.88;;;;;;;;;;5054567;28;20176;-47
2023/07/29 13:07:46;;;;;;;4.93;2.88;;;;;;;;;;5054721;28;20262;-47
2023/07/29 13:10:12;;;;;;;4.10;2.63;;;;;;;;;;5049159;28;20618;-47
2023/07/29 13:12:38;;;;;;;5.25;2.35;;;;;;;;;;5052424;28;20236;-47
2023/07/29 13:15:04;;;;;;;3.03;2.15;;;;;;;;;;5052743;28;20183;-47
2023/07/29 13:17:30;;;;;;;3.05;1.80;;;;;;;;;;5053918;28;20519;-47
2023/07/29 13:19:57;;;;;;;2.53;1.77;;;;;;;;;;5050030;28;20187;-47
2023/07/29 13:22:23;;;;;;;2.97;1.90;;;;;;;;;;5055446;28;20293;-47
2023/07/29 13:24:49;;;;;;;3.83;2.33;;;;;;;;;;5075092;28;20384;-47
2023/07/29 13:27:15;;;;;;;2.47;1.88;;;;;;;;;;5067567;28;20210;-47
2023/07/29 13:29:41;;;;;;;2.17;1.70;;;;;;;;;;5054104;28;20247;-47
2023/07/29 13:32:07;;;;;;;2.42;1.58;;;;;;;;;;5063492;28;20205;-47
2023/07/29 13:34:34;;;;;;;1.38;1.25;;;;;;;;;;5050022;28;20191;-47
2023/07/29 13:37:00;;;;;;;2.72;1.50;;;;;;;;;;5051405;28;20179;-47
2023/07/29 13:39:27;;;;;;;3.20;1.52;;;;;;;;;;5054556;28;20197;-47
2023/07/29 13:41:53;;;;;;;1.40;1.30;;;;;;;;;;5049177;28;20564;-47
2023/07/29 13:44:19;;;;;;;1.88;1.48;;;;;;;;;;5053611;28;20275;-47
2023/07/29 13:46:44;;;;;;;2.17;1.20;;;;;;;;;;5047701;28;20275;-47
2023/07/29 13:49:11;;;;;;;2.33;1.30;;;;;;;;;;5052132;28;20233;-47
2023/07/29 13:51:37;;;;;;;1.27;1.10;;;;;;;;;;5048419;28;20607;-46
2023/07/29 13:54:03;;;;;;;3.30;1.23;;;;;;;;;;5053638;28;20195;-48
2023/07/29 13:56:29;;;;;;;1.30;1.20;;;;;;;;;;5054682;28;20209;-47
2023/07/29 13:58:55;;;;;;;1.55;1.10;;;;;;;;;;5049099;28;20285;-47
2023/07/29 14:01:20;;;;;;;1.88;1.05;;;;;;;;;;5048232;28;20203;-47
2023/07/29 14:03:46;;;;;;;1.33;1.20;;;;;;;;;;5049646;28;20188;-47
2023/07/29 14:06:12;;;;;;;1.35;1.10;;;;;;;;;;5053201;28;20453;-47
2023/07/29 14:08:40;;;;;;;1.42;1.00;;;;;;;;;;5052484;28;20236;-47
2023/07/29 14:11:06;;;;;;;1.17;1.00;;;;;;;;;;5049875;28;20195;-47
2023/07/29 14:13:32;;;;;;;1.38;1.25;;;;;;;;;;5053479;28;20195;-47
2023/07/29 14:16:00;;;;;;;2.10;0.90;;;;;;;;;;5054062;28;20256;-47
2023/07/29 14:18:26;;;;;;;0.95;0.90;;;;;;;;;;5050242;28;20183;-47
2023/07/29 14:20:52;;;;;;;1.00;0.90;;;;;;;;;;5055168;28;20263;-47
2023/07/29 14:23:18;;;;;;;1.05;1.00;;;;;;;;;;5061401;28;20536;-47
2023/07/29 14:25:44;;;;;;;1.23;1.00;;;;;;;;;;5042262;28;20198;-47
2023/07/29 14:28:10;;;;;;;1.00;0.90;;;;;;;;;;5051156;28;20183;-47
2023/07/29 14:30:37;;;;;;;0.85;0.85;;;;;;;;;;5051049;28;20551;-47
2023/07/29 14:33:03;;;;;;;1.13;1.00;;;;;;;;;;5050901;28;20862;-47
2023/07/29 14:35:30;;;;;;;0.73;0.68;;;;;;;;;;5053213;28;20221;-47
2023/07/29 14:37:56;;;;;;;0.60;0.60;;;;;;;;;;5047179;28;20197;-47